Terminal Aerodrome Forecast
Issued by NWS

Home | Current Version | Previous Version | Text Only | Print | Product List | Glossary Off
Versions: 1 2 3 4 5 6 7 8 9 10 11 12 13 14 15 16 17 18 19 20 21 22

216
FTUS43 KGRB 031441 AAB
TAFAUW
TAF AMD
KAUW 031441Z 0315/0412 34010G16KT 6SM -SN SCT015 OVC025
      TEMPO 0315/0316 4SM -SN BR OVC015
     FM032000 30012G18KT P6SM BKN015
     FM032300 30008KT P6SM SCT015 BKN030
     FM040400 30004KT P6SM SCT030 BKN100=

USA.gov is the U.S. government's official web portal to all federal, state and local government web resources and services.